Time,TemperatureF,DewpointF,PressureIn,WindDirection,WindDirectionDegrees,WindSpeedMPH,WindSpeedGustMPH,Humidity,HourlyPrecipIn,Conditions,Clouds,dailyrainin,SolarRadiationWatts/m^2,SoftwareType,DateUTC
2013-01-12 00:11:00,67.0,-29.0,-100.00,East,79,6.0,28.0,0,0.00,,,0.02,0.000000,,2013-01-12 10:11:00,
2013-01-12 00:22:00,67.0,-29.0,-100.00,East,79,6.0,28.0,0,0.00,,,0.02,0.000000,,2013-01-12 10:22:00,
2013-01-12 00:32:00,67.0,-29.0,-100.00,East,79,6.0,28.0,0,0.00,,,0.02,0.000000,,2013-01-12 10:32:00,
2013-01-12 00:42:00,67.0,-29.0,-100.00,East,79,6.0,28.0,0,0.00,,,0.02,0.000000,,2013-01-12 10:42:00,
2013-01-12 00:52:00,67.0,-29.0,-100.00,NNW,327,3.0,28.0,0,0.00,,,0.02,0.000000,,2013-01-12 10:52:00,
2013-01-12 01:12:00,67.0,-29.0,-100.00,NNW,327,3.0,28.0,0,0.00,,,0.02,0.000000,,2013-01-12 11:12:00,
2013-01-12 01:22:00,67.0,-29.0,-100.00,NNW,327,3.0,28.0,0,0.00,,,0.02,0.000000,,2013-01-12 11:22:00,
2013-01-12 01:32:00,67.0,-29.0,-100.00,NNW,327,3.0,28.0,0,0.00,,,0.02,0.000000,,2013-01-12 11:32:00,
2013-01-12 01:42:00,67.0,-29.0,-100.00,NNW,327,3.0,28.0,0,0.00,,,0.02,0.000000,,2013-01-12 11:42:00,
2013-01-12 01:52:00,67.0,-29.0,-100.00,SSE,159,5.0,28.0,0,0.00,,,0.02,0.000000,,2013-01-12 11:52:00,
2013-01-12 02:12:00,67.0,-29.0,-100.00,SSE,159,5.0,28.0,0,0.00,,,0.02,0.000000,,2013-01-12 12:12:00,
2013-01-12 02:22:00,67.0,-29.0,-100.00,SSE,159,5.0,28.0,0,0.00,,,0.02,0.000000,,2013-01-12 12:22:00,
2013-01-12 02:32:00,67.0,-29.0,-100.00,SSE,159,5.0,28.0,0,0.00,,,0.02,0.000000,,2013-01-12 12:32:00,
2013-01-12 02:42:00,67.0,-29.0,-100.00,SSE,159,5.0,28.0,0,0.00,,,0.02,0.000000,,2013-01-12 12:42:00,
2013-01-12 02:52:00,66.0,-29.0,-100.00,East,101,12.0,29.0,0,0.00,,,0.02,0.000000,,2013-01-12 12:52:00,
2013-01-12 03:12:00,66.0,-29.0,-100.00,East,101,12.0,29.0,0,0.00,,,0.02,0.000000,,2013-01-12 13:12:00,
2013-01-12 03:22:00,66.0,-29.0,-100.00,East,101,12.0,29.0,0,0.00,,,0.02,0.000000,,2013-01-12 13:22:00,
2013-01-12 03:32:00,66.0,-29.0,-100.00,East,101,12.0,29.0,0,0.00,,,0.02,0.000000,,2013-01-12 13:32:00,
2013-01-12 03:42:00,66.0,-29.0,-100.00,East,101,12.0,29.0,0,0.00,,,0.02,0.000000,,2013-01-12 13:42:00,
2013-01-12 03:52:00,67.0,-29.0,-100.00,East,100,15.0,31.0,0,0.00,,,0.02,0.000000,,2013-01-12 13:52:00,
2013-01-12 04:12:00,67.0,-29.0,-100.00,East,100,15.0,31.0,0,0.00,,,0.02,0.000000,,2013-01-12 14:12:00,
2013-01-12 04:22:00,67.0,-29.0,-100.00,East,100,15.0,31.0,0,0.00,,,0.02,0.000000,,2013-01-12 14:22:00,
2013-01-12 04:32:00,67.0,-29.0,-100.00,East,100,15.0,31.0,0,0.00,,,0.02,0.000000,,2013-01-12 14:32:00,
2013-01-12 04:43:00,67.0,-29.0,-100.00,East,100,15.0,31.0,0,0.00,,,0.02,0.000000,,2013-01-12 14:43:00,
2013-01-12 04:52:00,66.0,-29.0,-100.00,ESE,105,33.0,50.0,0,0.00,,,-99.99,0.000000,,2013-01-12 14:52:00,
2013-01-12 05:22:00,66.0,-29.0,-100.00,ESE,105,33.0,50.0,0,0.00,,,-99.99,0.000000,,2013-01-12 15:22:00,
2013-01-12 05:33:00,66.0,-29.0,-100.00,ESE,105,33.0,50.0,0,0.00,,,-99.99,0.000000,,2013-01-12 15:33:00,
2013-01-12 05:42:00,66.0,-29.0,-100.00,ESE,105,33.0,50.0,0,0.00,,,-99.99,0.000000,,2013-01-12 15:42:00,
2013-01-12 05:52:00,68.0,-28.0,-100.00,ESE,123,22.0,52.0,0,0.00,,,0.02,0.000000,,2013-01-12 15:52:00,
2013-01-12 06:12:00,68.0,-28.0,-100.00,ESE,123,22.0,52.0,0,0.00,,,0.02,0.000000,,2013-01-12 16:12:00,
2013-01-12 06:23:00,68.0,-28.0,-100.00,ESE,123,22.0,52.0,0,0.00,,,0.02,0.000000,,2013-01-12 16:23:00,
2013-01-12 06:32:00,68.0,-28.0,-100.00,ESE,123,22.0,52.0,0,0.00,,,0.02,0.000000,,2013-01-12 16:32:00,
2013-01-12 06:42:00,68.0,-28.0,-100.00,ESE,123,22.0,52.0,0,0.00,,,0.02,0.000000,,2013-01-12 16:42:00,
2013-01-12 06:52:00,68.0,-28.0,-100.00,East,99,31.0,50.0,0,0.00,,,0.02,0.000000,,2013-01-12 16:52:00,
2013-01-12 07:12:00,68.0,-28.0,-100.00,East,99,31.0,50.0,0,0.00,,,0.02,0.000000,,2013-01-12 17:12:00,
2013-01-12 07:22:00,68.0,-28.0,-100.00,East,99,31.0,50.0,0,0.00,,,0.02,0.000000,,2013-01-12 17:22:00,
2013-01-12 07:32:00,68.0,-28.0,-100.00,East,99,31.0,50.0,0,0.00,,,0.02,0.000000,,2013-01-12 17:32:00,
2013-01-12 07:42:00,68.0,-28.0,-100.00,East,99,31.0,50.0,0,0.00,,,0.02,0.000000,,2013-01-12 17:42:00,
2013-01-12 07:52:00,66.0,-29.0,-100.00,ESE,118,22.0,50.0,0,0.00,,,0.02,0.000000,,2013-01-12 17:52:00,
2013-01-12 08:12:00,66.0,-29.0,-100.00,ESE,118,22.0,50.0,0,0.00,,,0.02,0.000000,,2013-01-12 18:12:00,
2013-01-12 08:22:00,66.0,-29.0,-100.00,ESE,118,22.0,50.0,0,0.00,,,0.02,0.000000,,2013-01-12 18:22:00,
2013-01-12 08:33:00,66.0,-29.0,-100.00,ESE,118,22.0,50.0,0,0.00,,,0.02,0.000000,,2013-01-12 18:33:00,
2013-01-12 08:42:00,66.0,-29.0,-100.00,ESE,118,22.0,50.0,0,0.00,,,0.02,0.000000,,2013-01-12 18:42:00,
2013-01-12 08:52:00,68.0,-28.0,-100.00,WNW,301,12.0,50.0,0,0.00,,,0.02,62.000000,,2013-01-12 18:52:00,
2013-01-12 09:12:00,68.0,-28.0,-100.00,WNW,301,12.0,50.0,0,0.00,,,0.02,62.000000,,2013-01-12 19:12:00,
2013-01-12 09:22:00,68.0,-28.0,-100.00,WNW,301,12.0,50.0,0,0.00,,,0.02,62.000000,,2013-01-12 19:22:00,
2013-01-12 09:32:00,68.0,-28.0,-100.00,WNW,301,12.0,50.0,0,0.00,,,0.02,62.000000,,2013-01-12 19:32:00,
2013-01-12 09:42:00,68.0,-28.0,-100.00,WNW,301,12.0,50.0,0,0.00,,,0.02,62.000000,,2013-01-12 19:42:00,
2013-01-12 09:52:00,73.0,-25.0,-100.00,SSE,162,13.0,34.0,0,0.00,,,0.02,300.000000,,2013-01-12 19:52:00,
2013-01-12 10:12:00,73.0,-25.0,-100.00,SSE,162,13.0,34.0,0,0.00,,,0.02,300.000000,,2013-01-12 20:12:00,
2013-01-12 10:22:00,73.0,-25.0,-100.00,SSE,162,13.0,34.0,0,0.00,,,0.02,300.000000,,2013-01-12 20:22:00,
2013-01-12 10:32:00,73.0,-25.0,-100.00,SSE,162,13.0,34.0,0,0.00,,,0.02,300.000000,,2013-01-12 20:32:00,
2013-01-12 10:42:00,73.0,-25.0,-100.00,SSE,162,13.0,34.0,0,0.00,,,0.02,300.000000,,2013-01-12 20:42:00,
2013-01-12 10:52:00,75.0,-24.0,-100.00,SSE,154,10.0,19.0,0,0.00,,,0.02,573.000000,,2013-01-12 20:52:00,
2013-01-12 11:22:00,75.0,-24.0,-100.00,SSE,154,10.0,19.0,0,0.00,,,0.02,573.000000,,2013-01-12 21:22:00,
2013-01-12 11:32:00,75.0,-24.0,-100.00,SSE,154,10.0,19.0,0,0.00,,,0.02,573.000000,,2013-01-12 21:32:00,
2013-01-12 11:42:00,75.0,-24.0,-100.00,SSE,154,10.0,19.0,0,0.00,,,0.02,573.000000,,2013-01-12 21:42:00,
2013-01-12 11:52:00,75.0,-24.0,-100.00,NE,45,10.0,17.0,0,0.00,,,0.02,609.000000,,2013-01-12 21:52:00,
2013-01-12 12:22:00,75.0,-24.0,-100.00,NE,45,10.0,17.0,0,0.00,,,0.02,609.000000,,2013-01-12 22:22:00,
2013-01-12 12:32:00,75.0,-24.0,-100.00,NE,45,10.0,17.0,0,0.00,,,0.02,609.000000,,2013-01-12 22:32:00,
2013-01-12 12:43:00,75.0,-24.0,-100.00,NE,45,10.0,17.0,0,0.00,,,0.02,609.000000,,2013-01-12 22:43:00,
2013-01-12 12:52:00,77.0,-23.0,-100.00,ESE,104,11.0,18.0,0,0.00,,,0.02,911.000000,,2013-01-12 22:52:00,
2013-01-12 13:12:00,77.0,-23.0,-100.00,ESE,104,11.0,18.0,0,0.00,,,0.02,911.000000,,2013-01-12 23:12:00,
2013-01-12 13:22:00,77.0,-23.0,-100.00,ESE,104,11.0,18.0,0,0.00,,,0.02,911.000000,,2013-01-12 23:22:00,
2013-01-12 13:32:00,77.0,-23.0,-100.00,ESE,104,11.0,18.0,0,0.00,,,0.02,911.000000,,2013-01-12 23:32:00,
2013-01-12 13:42:00,77.0,-23.0,-100.00,ESE,104,11.0,18.0,0,0.00,,,0.02,911.000000,,2013-01-12 23:42:00,
2013-01-12 13:52:00,78.0,-22.0,-100.00,SSE,162,13.0,18.0,0,0.00,,,-99.99,960.000000,,2013-01-12 23:52:00,
2013-01-12 14:12:00,78.0,-22.0,-100.00,SSE,162,13.0,18.0,0,0.00,,,-99.99,960.000000,,2013-01-13 00:12:00,
2013-01-12 14:22:00,78.0,-22.0,-100.00,SSE,162,13.0,18.0,0,0.00,,,-99.99,960.000000,,2013-01-13 00:22:00,
2013-01-12 14:32:00,78.0,-22.0,-100.00,SSE,162,13.0,18.0,0,0.00,,,-99.99,960.000000,,2013-01-13 00:32:00,
2013-01-12 14:42:00,78.0,-22.0,-100.00,SSE,162,13.0,18.0,0,0.00,,,-99.99,960.000000,,2013-01-13 00:42:00,
2013-01-12 14:52:00,75.0,-24.0,-100.00,North,358,7.0,19.0,0,0.00,,,0.02,627.000000,,2013-01-13 00:52:00,
2013-01-12 15:12:00,75.0,-24.0,-100.00,North,358,7.0,19.0,0,0.00,,,0.02,627.000000,,2013-01-13 01:12:00,
2013-01-12 15:22:00,75.0,-24.0,-100.00,North,358,7.0,19.0,0,0.00,,,0.02,627.000000,,2013-01-13 01:22:00,
2013-01-12 15:32:00,75.0,-24.0,-100.00,North,358,7.0,19.0,0,0.00,,,0.02,627.000000,,2013-01-13 01:32:00,
2013-01-12 15:42:00,75.0,-24.0,-100.00,North,358,7.0,19.0,0,0.00,,,0.02,627.000000,,2013-01-13 01:42:00,
2013-01-12 15:52:00,75.0,-24.0,-100.00,WNW,302,9.0,13.0,0,0.00,,,0.02,192.000000,,2013-01-13 01:52:00,
2013-01-12 16:12:00,75.0,-24.0,-100.00,WNW,302,9.0,13.0,0,0.00,,,0.02,192.000000,,2013-01-13 02:12:00,
2013-01-12 16:22:00,75.0,-24.0,-100.00,WNW,302,9.0,13.0,0,0.00,,,0.02,192.000000,,2013-01-13 02:22:00,
2013-01-12 16:32:00,75.0,-24.0,-100.00,WNW,302,9.0,13.0,0,0.00,,,0.02,192.000000,,2013-01-13 02:32:00,
2013-01-12 16:42:00,75.0,-24.0,-100.00,WNW,302,9.0,13.0,0,0.00,,,0.02,192.000000,,2013-01-13 02:42:00,
2013-01-12 16:52:00,73.0,-25.0,-100.00,ESE,123,6.0,13.0,0,0.00,,,0.02,322.000000,,2013-01-13 02:52:00,
2013-01-12 17:22:00,73.0,-25.0,-100.00,ESE,123,6.0,13.0,0,0.00,,,0.02,322.000000,,2013-01-13 03:22:00,
2013-01-12 17:32:00,73.0,-25.0,-100.00,ESE,123,6.0,13.0,0,0.00,,,0.02,322.000000,,2013-01-13 03:32:00,
2013-01-12 17:42:00,73.0,-25.0,-100.00,ESE,123,6.0,13.0,0,0.00,,,0.02,322.000000,,2013-01-13 03:42:00,
2013-01-12 17:52:00,74.0,-25.0,-100.00,SSE,162,11.0,27.0,0,0.00,,,0.02,161.000000,,2013-01-13 03:52:00,
2013-01-12 18:12:00,74.0,-25.0,-100.00,SSE,162,11.0,27.0,0,0.00,,,0.02,161.000000,,2013-01-13 04:12:00,
2013-01-12 18:22:00,74.0,-25.0,-100.00,SSE,162,11.0,27.0,0,0.00,,,0.02,161.000000,,2013-01-13 04:22:00,
2013-01-12 18:32:00,74.0,-25.0,-100.00,SSE,162,11.0,27.0,0,0.00,,,0.02,161.000000,,2013-01-13 04:32:00,
2013-01-12 18:42:00,74.0,-25.0,-100.00,SSE,162,11.0,27.0,0,0.00,,,0.02,161.000000,,2013-01-13 04:42:00,
2013-01-12 18:52:00,69.0,-28.0,-100.00,SE,145,13.0,20.0,0,0.00,,,0.00,84.000000,,2013-01-13 04:52:00,
2013-01-12 19:12:00,69.0,-28.0,-100.00,SE,145,13.0,20.0,0,0.00,,,0.00,84.000000,,2013-01-13 05:12:00,
2013-01-12 19:22:00,69.0,-28.0,-100.00,SE,145,13.0,20.0,0,0.00,,,0.00,84.000000,,2013-01-13 05:22:00,
2013-01-12 19:32:00,69.0,-28.0,-100.00,SE,145,13.0,20.0,0,0.00,,,0.00,84.000000,,2013-01-13 05:32:00,
2013-01-12 19:42:00,69.0,-28.0,-100.00,SE,145,13.0,20.0,0,0.00,,,0.00,84.000000,,2013-01-13 05:42:00,
2013-01-12 19:52:00,70.0,-27.0,-100.00,SE,143,13.0,32.0,0,0.00,,,0.00,1.000000,,2013-01-13 05:52:00,
2013-01-12 20:12:00,70.0,-27.0,-100.00,SE,143,13.0,32.0,0,0.00,,,0.00,1.000000,,2013-01-13 06:12:00,
2013-01-12 20:22:00,70.0,-27.0,-100.00,SE,143,13.0,32.0,0,0.00,,,0.00,1.000000,,2013-01-13 06:22:00,
2013-01-12 20:32:00,70.0,-27.0,-100.00,SE,143,13.0,32.0,0,0.00,,,0.00,1.000000,,2013-01-13 06:32:00,
2013-01-12 20:42:00,70.0,-27.0,-100.00,SE,143,13.0,32.0,0,0.00,,,0.00,1.000000,,2013-01-13 06:42:00,
2013-01-12 20:52:00,70.0,-27.0,-100.00,SSE,148,18.0,34.0,0,0.00,,,0.00,0.000000,,2013-01-13 06:52:00,
2013-01-12 21:22:00,70.0,-27.0,-100.00,SSE,148,18.0,34.0,0,0.00,,,0.00,0.000000,,2013-01-13 07:22:00,
2013-01-12 21:32:00,70.0,-27.0,-100.00,SSE,148,18.0,34.0,0,0.00,,,0.00,0.000000,,2013-01-13 07:32:00,
2013-01-12 21:42:00,70.0,-27.0,-100.00,SSE,148,18.0,34.0,0,0.00,,,0.00,0.000000,,2013-01-13 07:42:00,
2013-01-12 21:52:00,70.0,-27.0,-100.00,SE,144,17.0,34.0,0,0.00,,,0.00,0.000000,,2013-01-13 07:52:00,
2013-01-12 22:12:00,70.0,-27.0,-100.00,SE,144,17.0,34.0,0,0.00,,,0.00,0.000000,,2013-01-13 08:12:00,
2013-01-12 22:22:00,70.0,-27.0,-100.00,SE,144,17.0,34.0,0,0.00,,,0.00,0.000000,,2013-01-13 08:22:00,
2013-01-12 22:32:00,70.0,-27.0,-100.00,SE,144,17.0,34.0,0,0.00,,,0.00,0.000000,,2013-01-13 08:32:00,
2013-01-12 22:42:00,70.0,-27.0,-100.00,SE,144,17.0,34.0,0,0.00,,,0.00,0.000000,,2013-01-13 08:42:00,
2013-01-12 22:52:00,70.0,-27.0,-100.00,SSE,148,14.0,33.0,0,0.00,,,0.00,0.000000,,2013-01-13 08:52:00,
2013-01-12 23:12:00,70.0,-27.0,-100.00,SSE,148,14.0,33.0,0,0.00,,,0.00,0.000000,,2013-01-13 09:12:00,
2013-01-12 23:22:00,70.0,-27.0,-100.00,SSE,148,14.0,33.0,0,0.00,,,0.00,0.000000,,2013-01-13 09:22:00,
2013-01-12 23:32:00,70.0,-27.0,-100.00,SSE,148,14.0,33.0,0,0.00,,,0.00,0.000000,,2013-01-13 09:32:00,
2013-01-12 23:42:00,70.0,-27.0,-100.00,SSE,148,14.0,33.0,0,0.00,,,0.00,0.000000,,2013-01-13 09:42:00,
2013-01-12 23:52:00,68.0,-28.0,-100.00,SE,139,11.0,31.0,0,0.00,,,0.00,0.000000,,2013-01-13 09:52:00,